Time,TemperatureF,DewpointF,PressureIn,WindDirection,WindDirectionDegrees,WindSpeedMPH,WindSpeedGustMPH,Humidity,HourlyPrecipIn,Conditions,Clouds,dailyrainin,SoftwareType,DateUTC
2013-05-26 00:11:00,57.2,52.7,29.99,South,180,0.0,-999.0,85,-99.99,,,0.00,Acu-Link.com,2013-05-26 04:11:00,
2013-05-26 00:26:00,56.8,52.7,29.99,SSE,157,0.0,-999.0,86,-99.99,,,0.00,Acu-Link.com,2013-05-26 04:26:00,
2013-05-26 00:42:00,56.5,53.0,29.99,South,180,0.0,-999.0,88,-99.99,,,0.00,Acu-Link.com,2013-05-26 04:42:00,
2013-05-26 00:57:00,56.5,53.0,29.99,SSE,157,0.0,-999.0,88,-99.99,,,0.00,Acu-Link.com,2013-05-26 04:57:00,
2013-05-26 01:12:00,56.8,54.5,29.98,South,180,0.0,-999.0,92,-99.99,,,0.00,Acu-Link.com,2013-05-26 05:12:00,
2013-05-26 01:27:00,56.7,54.1,29.96,SSE,157,0.0,-999.0,91,-99.99,,,0.00,Acu-Link.com,2013-05-26 05:27:00,
2013-05-26 01:42:00,56.7,55.0,29.96,WSW,247,0.0,-999.0,94,-99.99,,,0.00,Acu-Link.com,2013-05-26 05:42:00,
2013-05-26 01:58:00,56.1,54.1,29.96,SSE,157,0.0,-999.0,93,-99.99,,,0.00,Acu-Link.com,2013-05-26 05:58:00,
2013-05-26 02:13:00,55.6,53.3,29.96,South,180,0.0,-999.0,92,-99.99,,,0.00,Acu-Link.com,2013-05-26 06:13:00,
2013-05-26 02:28:00,55.2,53.2,29.95,SSW,202,0.0,-999.0,93,-99.99,,,0.00,Acu-Link.com,2013-05-26 06:28:00,
2013-05-26 02:43:00,55.0,53.3,29.96,South,180,0.0,-999.0,94,-99.99,,,0.00,Acu-Link.com,2013-05-26 06:43:00,
2013-05-26 02:58:00,54.9,53.2,29.95,South,180,0.0,-999.0,94,-99.99,,,0.00,Acu-Link.com,2013-05-26 06:58:00,
2013-05-26 03:14:00,55.2,54.1,29.95,South,180,0.0,-999.0,96,-99.99,,,0.00,Acu-Link.com,2013-05-26 07:14:00,
2013-05-26 03:29:00,54.9,53.8,29.94,SSE,157,0.0,-999.0,96,-99.99,,,0.00,Acu-Link.com,2013-05-26 07:29:00,
2013-05-26 03:44:00,54.5,53.1,29.95,South,180,0.0,-999.0,95,-99.99,,,0.00,Acu-Link.com,2013-05-26 07:44:00,
2013-05-26 03:59:00,54.5,53.1,29.95,South,180,0.0,-999.0,95,-99.99,,,0.00,Acu-Link.com,2013-05-26 07:59:00,
2013-05-26 04:15:00,54.3,52.9,29.95,SSE,157,0.0,-999.0,95,-99.99,,,0.00,Acu-Link.com,2013-05-26 08:15:00,
2013-05-26 04:30:00,54.3,52.9,29.95,South,180,0.0,-999.0,95,-99.99,,,0.00,Acu-Link.com,2013-05-26 08:30:00,
2013-05-26 04:45:00,54.3,52.9,29.96,South,180,0.0,-999.0,95,-99.99,,,0.00,Acu-Link.com,2013-05-26 08:45:00,
2013-05-26 05:00:00,54.3,52.9,29.96,South,180,0.0,-999.0,95,-99.99,,,0.00,Acu-Link.com,2013-05-26 09:00:00,
2013-05-26 05:16:00,54.1,52.7,29.96,SSW,202,0.0,-999.0,95,-99.99,,,0.00,Acu-Link.com,2013-05-26 09:16:00,
2013-05-26 05:31:00,54.3,53.5,29.97,South,180,0.0,-999.0,97,-99.99,,,0.00,Acu-Link.com,2013-05-26 09:31:00,
2013-05-26 05:46:00,53.8,53.0,29.98,SSW,202,0.0,-999.0,97,-99.99,,,0.00,Acu-Link.com,2013-05-26 09:46:00,
2013-05-26 06:01:00,53.2,51.8,29.99,South,180,0.0,-999.0,95,-99.99,,,0.00,Acu-Link.com,2013-05-26 10:01:00,
2013-05-26 06:16:00,53.1,52.0,30.00,South,180,0.0,-999.0,96,-99.99,,,0.00,Acu-Link.com,2013-05-26 10:16:00,
2013-05-26 06:31:00,53.1,52.0,30.00,South,180,0.0,-999.0,96,-99.99,,,0.00,Acu-Link.com,2013-05-26 10:31:00,
2013-05-26 06:47:00,53.2,52.1,30.01,South,180,0.0,-999.0,96,-99.99,,,0.00,Acu-Link.com,2013-05-26 10:47:00,
2013-05-26 07:02:00,53.8,53.0,30.02,South,180,0.0,-999.0,97,-99.99,,,0.00,Acu-Link.com,2013-05-26 11:02:00,
2013-05-26 07:17:00,54.1,53.3,30.02,South,180,0.0,-999.0,97,-99.99,,,0.00,Acu-Link.com,2013-05-26 11:17:00,
2013-05-26 07:32:00,54.5,53.7,30.03,SSW,202,0.0,-999.0,97,-99.99,,,0.00,Acu-Link.com,2013-05-26 11:32:00,
2013-05-26 07:47:00,55.6,55.0,30.03,South,180,0.0,-999.0,98,-99.99,,,0.00,Acu-Link.com,2013-05-26 11:47:00,
2013-05-26 08:03:00,59.2,58.1,30.03,SSW,202,0.0,-999.0,96,-99.99,,,0.00,Acu-Link.com,2013-05-26 12:03:00,
2013-05-26 08:18:00,62.2,59.5,30.03,South,180,0.0,-999.0,91,-99.99,,,0.00,Acu-Link.com,2013-05-26 12:18:00,
2013-05-26 08:33:00,68.0,62.3,30.04,South,180,0.0,-999.0,82,-99.99,,,0.00,Acu-Link.com,2013-05-26 12:33:00,
2013-05-26 08:48:00,71.4,61.9,30.04,SE,135,0.0,-999.0,72,-99.99,,,0.00,Acu-Link.com,2013-05-26 12:48:00,
2013-05-26 09:03:00,70.3,61.6,30.07,ESE,112,0.0,-999.0,74,-99.99,,,0.00,Acu-Link.com,2013-05-26 13:03:00,
2013-05-26 09:19:00,74.1,62.8,30.06,South,180,1.7,-999.0,68,-99.99,,,0.00,Acu-Link.com,2013-05-26 13:19:00,
2013-05-26 09:34:00,75.4,62.4,30.06,ESE,112,1.1,-999.0,64,-99.99,,,0.00,Acu-Link.com,2013-05-26 13:34:00,
2013-05-26 09:49:00,76.5,61.6,30.05,SW,225,1.7,-999.0,60,-99.99,,,0.00,Acu-Link.com,2013-05-26 13:49:00,
2013-05-26 10:04:00,77.9,61.9,30.05,South,180,1.1,-999.0,58,-99.99,,,0.00,Acu-Link.com,2013-05-26 14:04:00,
2013-05-26 10:19:00,76.8,62.3,30.05,NE,45,2.2,-999.0,61,-99.99,,,0.00,Acu-Link.com,2013-05-26 14:19:00,
2013-05-26 10:35:00,79.2,62.6,30.05,North,0,2.2,-999.0,57,-99.99,,,0.00,Acu-Link.com,2013-05-26 14:35:00,
2013-05-26 10:50:00,81.7,61.8,30.04,SW,225,1.7,-999.0,51,-99.99,,,0.00,Acu-Link.com,2013-05-26 14:50:00,
2013-05-26 11:05:00,80.8,62.0,30.06,ESE,112,1.7,-999.0,53,-99.99,,,0.00,Acu-Link.com,2013-05-26 15:05:00,
2013-05-26 11:20:00,81.1,60.7,30.07,SSE,157,2.2,-999.0,50,-99.99,,,0.00,Acu-Link.com,2013-05-26 15:20:00,
2013-05-26 11:36:00,85.3,58.9,30.05,North,0,3.7,-999.0,41,-99.99,,,0.00,Acu-Link.com,2013-05-26 15:36:00,
2013-05-26 11:51:00,80.1,57.4,30.04,East,90,2.2,-999.0,46,-99.99,,,0.00,Acu-Link.com,2013-05-26 15:51:00,
2013-05-26 12:06:00,85.3,58.2,30.06,SE,135,2.7,-999.0,40,-99.99,,,0.00,Acu-Link.com,2013-05-26 16:06:00,
2013-05-26 12:21:00,85.8,57.9,30.06,SW,225,2.7,-999.0,39,-99.99,,,0.00,Acu-Link.com,2013-05-26 16:21:00,
2013-05-26 12:36:00,84.6,57.6,30.03,ESE,112,0.0,-999.0,40,-99.99,,,0.00,Acu-Link.com,2013-05-26 16:36:00,
2013-05-26 12:52:00,88.2,58.6,30.04,East,90,1.7,-999.0,37,-99.99,,,0.00,Acu-Link.com,2013-05-26 16:52:00,
2013-05-26 13:07:00,88.5,56.5,30.04,East,90,1.7,-999.0,34,-99.99,,,0.00,Acu-Link.com,2013-05-26 17:07:00,
2013-05-26 13:22:00,86.2,57.6,30.03,SE,135,3.7,-999.0,38,-99.99,,,0.00,Acu-Link.com,2013-05-26 17:22:00,
2013-05-26 13:37:00,88.2,58.6,30.04,SW,225,1.7,-999.0,37,-99.99,,,0.00,Acu-Link.com,2013-05-26 17:37:00,
2013-05-26 13:52:00,89.1,58.6,30.03,WSW,247,1.7,-999.0,36,-99.99,,,0.00,Acu-Link.com,2013-05-26 17:52:00,
2013-05-26 14:08:00,91.8,59.4,30.02,North,0,2.2,-999.0,34,-99.99,,,0.00,Acu-Link.com,2013-05-26 18:08:00,
2013-05-26 14:23:00,89.1,56.2,30.02,SSW,202,4.7,-999.0,33,-99.99,,,0.00,Acu-Link.com,2013-05-26 18:23:00,
2013-05-26 14:38:00,90.1,58.7,30.01,SE,135,2.2,-999.0,35,-99.99,,,0.00,Acu-Link.com,2013-05-26 18:38:00,
2013-05-26 14:54:00,88.0,56.9,30.02,SSE,157,1.1,-999.0,35,-99.99,,,0.00,Acu-Link.com,2013-05-26 18:54:00,
2013-05-26 15:09:00,88.7,56.7,30.02,East,90,1.7,-999.0,34,-99.99,,,0.00,Acu-Link.com,2013-05-26 19:09:00,
2013-05-26 15:24:00,90.5,54.8,30.00,NW,315,2.2,-999.0,30,-99.99,,,0.00,Acu-Link.com,2013-05-26 19:24:00,
2013-05-26 15:39:00,86.5,55.6,29.99,East,90,2.7,-999.0,35,-99.99,,,0.00,Acu-Link.com,2013-05-26 19:39:00,
2013-05-26 15:54:00,86.5,57.1,30.00,ESE,112,0.0,-999.0,37,-99.99,,,0.00,Acu-Link.com,2013-05-26 19:54:00,
2013-05-26 16:10:00,87.6,56.5,29.99,SSE,157,0.0,-999.0,35,-99.99,,,0.00,Acu-Link.com,2013-05-26 20:10:00,
2013-05-26 16:25:00,86.9,56.7,29.98,SSE,157,0.0,-999.0,36,-99.99,,,0.00,Acu-Link.com,2013-05-26 20:25:00,
2013-05-26 16:40:00,88.7,57.5,29.98,South,180,1.7,-999.0,35,-99.99,,,0.00,Acu-Link.com,2013-05-26 20:40:00,
2013-05-26 16:55:00,87.1,56.1,29.98,South,180,0.0,-999.0,35,-99.99,,,0.00,Acu-Link.com,2013-05-26 20:55:00,
2013-05-26 17:10:00,86.2,56.8,29.98,ESE,112,0.0,-999.0,37,-99.99,,,0.00,Acu-Link.com,2013-05-26 21:10:00,
2013-05-26 17:26:00,85.6,57.0,29.98,SE,135,2.7,-999.0,38,-99.99,,,0.00,Acu-Link.com,2013-05-26 21:26:00,
2013-05-26 17:41:00,85.1,61.3,29.97,SSW,202,0.0,-999.0,45,-99.99,,,0.00,Acu-Link.com,2013-05-26 21:41:00,
2013-05-26 17:56:00,88.5,58.9,29.99,ENE,67,0.0,-999.0,37,-99.99,,,0.00,Acu-Link.com,2013-05-26 21:56:00,
2013-05-26 18:11:00,89.2,60.2,29.98,South,180,0.0,-999.0,38,-99.99,,,0.00,Acu-Link.com,2013-05-26 22:11:00,
2013-05-26 18:26:00,89.1,63.0,29.98,SSE,157,0.0,-999.0,42,-99.99,,,0.00,Acu-Link.com,2013-05-26 22:26:00,
2013-05-26 18:42:00,87.8,62.5,29.98,SSE,157,0.0,-999.0,43,-99.99,,,0.00,Acu-Link.com,2013-05-26 22:42:00,
2013-05-26 18:57:00,85.8,62.6,29.98,South,180,0.0,-999.0,46,-99.99,,,0.00,Acu-Link.com,2013-05-26 22:57:00,
2013-05-26 19:12:00,83.7,63.1,29.97,SSE,157,0.0,-999.0,50,-99.99,,,0.00,Acu-Link.com,2013-05-26 23:12:00,
2013-05-26 19:27:00,82.8,64.4,29.97,South,180,0.0,-999.0,54,-99.99,,,0.00,Acu-Link.com,2013-05-26 23:27:00,
2013-05-26 19:43:00,81.5,64.8,29.97,South,180,0.0,-999.0,57,-99.99,,,0.00,Acu-Link.com,2013-05-26 23:43:00,
2013-05-26 19:58:00,80.1,62.5,29.98,SSE,157,0.0,-999.0,55,-99.99,,,0.00,Acu-Link.com,2013-05-26 23:58:00,
2013-05-26 20:13:00,78.4,62.9,29.97,South,180,0.0,-999.0,59,-99.99,,,0.00,Acu-Link.com,2013-05-27 00:13:00,
2013-05-26 20:28:00,76.8,59.4,29.98,NNE,22,0.0,-999.0,55,-99.99,,,0.00,Acu-Link.com,2013-05-27 00:28:00,
2013-05-26 20:43:00,75.6,59.3,29.98,South,180,0.0,-999.0,57,-99.99,,,0.00,Acu-Link.com,2013-05-27 00:43:00,
2013-05-26 20:59:00,74.1,58.8,29.97,South,180,0.0,-999.0,59,-99.99,,,0.00,Acu-Link.com,2013-05-27 00:59:00,
2013-05-26 21:14:00,72.7,58.5,29.98,South,180,0.0,-999.0,61,-99.99,,,0.00,Acu-Link.com,2013-05-27 01:14:00,
2013-05-26 21:29:00,71.6,58.3,29.98,ENE,67,0.0,-999.0,63,-99.99,,,0.00,Acu-Link.com,2013-05-27 01:29:00,
2013-05-26 21:44:00,70.3,58.4,29.98,SSW,202,0.0,-999.0,66,-99.99,,,0.00,Acu-Link.com,2013-05-27 01:44:00,
2013-05-26 21:59:00,69.1,57.7,29.99,South,180,0.0,-999.0,67,-99.99,,,0.00,Acu-Link.com,2013-05-27 01:59:00,
2013-05-26 22:15:00,68.4,57.0,29.99,ENE,67,0.0,-999.0,67,-99.99,,,0.00,Acu-Link.com,2013-05-27 02:15:00,
2013-05-26 22:30:00,68.2,57.2,30.00,South,180,0.0,-999.0,68,-99.99,,,0.00,Acu-Link.com,2013-05-27 02:30:00,
2013-05-26 22:45:00,67.1,57.8,30.00,South,180,0.0,-999.0,72,-99.99,,,0.00,Acu-Link.com,2013-05-27 02:45:00,
2013-05-26 23:00:00,66.2,56.9,30.01,South,180,0.0,-999.0,72,-99.99,,,0.00,Acu-Link.com,2013-05-27 03:00:00,
2013-05-26 23:15:00,65.1,57.0,30.00,SSW,202,0.0,-999.0,75,-99.99,,,0.00,Acu-Link.com,2013-05-27 03:15:00,
2013-05-26 23:31:00,64.8,57.1,30.01,SSW,202,0.0,-999.0,76,-99.99,,,0.00,Acu-Link.com,2013-05-27 03:31:00,
2013-05-26 23:46:00,64.0,57.7,30.01,South,180,0.0,-999.0,80,-99.99,,,0.00,Acu-Link.com,2013-05-27 03:46:00,